sensor_id;sensor_type;location;lat;lon;timestamp;temperature;humidity
31729;DHT22;18309;43.658;1.312;2022-12-07T00:01:10;9.90;99.90
31729;DHT22;18309;43.658;1.312;2022-12-07T00:03:39;9.90;99.90
31729;DHT22;18309;43.658;1.312;2022-12-07T00:06:07;9.90;99.90
31729;DHT22;18309;43.658;1.312;2022-12-07T00:08:33;9.80;99.90
31729;DHT22;18309;43.658;1.312;2022-12-07T00:11:28;9.90;99.90
31729;DHT22;18309;43.658;1.312;2022-12-07T00:13:55;9.80;99.90
31729;DHT22;18309;43.658;1.312;2022-12-07T00:16:25;9.80;99.90
31729;DHT22;18309;43.658;1.312;2022-12-07T00:18:51;9.80;99.90
31729;DHT22;18309;43.658;1.312;2022-12-07T00:21:25;9.80;99.90
31729;DHT22;18309;43.658;1.312;2022-12-07T00:23:52;9.80;99.90
31729;DHT22;18309;43.658;1.312;2022-12-07T00:26:21;9.80;99.90
31729;DHT22;18309;43.658;1.312;2022-12-07T00:28:54;9.80;99.90
31729;DHT22;18309;43.658;1.312;2022-12-07T00:31:22;9.80;99.90
31729;DHT22;18309;43.658;1.312;2022-12-07T00:33:48;9.80;99.90
31729;DHT22;18309;43.658;1.312;2022-12-07T00:36:16;9.80;99.90
31729;DHT22;18309;43.658;1.312;2022-12-07T00:38:42;9.80;99.90
31729;DHT22;18309;43.658;1.312;2022-12-07T00:41:12;9.80;99.90
31729;DHT22;18309;43.658;1.312;2022-12-07T00:43:39;9.80;99.90
31729;DHT22;18309;43.658;1.312;2022-12-07T00:46:05;9.80;99.90
31729;DHT22;18309;43.658;1.312;2022-12-07T00:48:31;9.80;99.90
31729;DHT22;18309;43.658;1.312;2022-12-07T00:50:57;9.80;99.90
31729;DHT22;18309;43.658;1.312;2022-12-07T00:53:23;9.80;99.90
31729;DHT22;18309;43.658;1.312;2022-12-07T00:55:48;9.80;99.90
31729;DHT22;18309;43.658;1.312;2022-12-07T00:58:14;9.80;99.90
31729;DHT22;18309;43.658;1.312;2022-12-07T01:00:41;9.80;99.90
31729;DHT22;18309;43.658;1.312;2022-12-07T01:03:09;9.70;99.90
31729;DHT22;18309;43.658;1.312;2022-12-07T01:05:35;9.80;99.90
31729;DHT22;18309;43.658;1.312;2022-12-07T01:08:01;9.80;99.90
31729;DHT22;18309;43.658;1.312;2022-12-07T01:10:27;9.80;99.90
31729;DHT22;18309;43.658;1.312;2022-12-07T01:12:54;9.80;99.90
31729;DHT22;18309;43.658;1.312;2022-12-07T01:15:19;9.80;99.90
31729;DHT22;18309;43.658;1.312;2022-12-07T01:17:45;9.80;99.90
31729;DHT22;18309;43.658;1.312;2022-12-07T01:20:11;9.80;99.90
31729;DHT22;18309;43.658;1.312;2022-12-07T01:22:38;9.80;99.90
31729;DHT22;18309;43.658;1.312;2022-12-07T01:25:06;9.80;99.90
31729;DHT22;18309;43.658;1.312;2022-12-07T01:27:33;9.70;99.90
31729;DHT22;18309;43.658;1.312;2022-12-07T01:29:59;9.70;99.90
31729;DHT22;18309;43.658;1.312;2022-12-07T01:32:25;9.70;99.90
31729;DHT22;18309;43.658;1.312;2022-12-07T01:34:50;9.70;99.90
31729;DHT22;18309;43.658;1.312;2022-12-07T01:37:16;9.70;99.90
31729;DHT22;18309;43.658;1.312;2022-12-07T01:39:42;9.70;99.90
31729;DHT22;18309;43.658;1.312;2022-12-07T01:42:11;9.70;99.90
31729;DHT22;18309;43.658;1.312;2022-12-07T01:47:41;9.60;99.90
31729;DHT22;18309;43.658;1.312;2022-12-07T01:50:08;9.60;99.90
31729;DHT22;18309;43.658;1.312;2022-12-07T01:52:35;9.60;99.90
31729;DHT22;18309;43.658;1.312;2022-12-07T01:55:05;9.60;99.90
31729;DHT22;18309;43.658;1.312;2022-12-07T01:57:33;9.60;99.90
31729;DHT22;18309;43.658;1.312;2022-12-07T02:00:00;9.60;99.90
31729;DHT22;18309;43.658;1.312;2022-12-07T02:02:39;9.60;99.90
31729;DHT22;18309;43.658;1.312;2022-12-07T02:05:06;9.60;99.90
31729;DHT22;18309;43.658;1.312;2022-12-07T02:07:34;9.60;99.90
31729;DHT22;18309;43.658;1.312;2022-12-07T02:10:21;9.60;99.90
31729;DHT22;18309;43.658;1.312;2022-12-07T02:12:51;9.60;99.90
31729;DHT22;18309;43.658;1.312;2022-12-07T02:15:20;9.60;99.90
31729;DHT22;18309;43.658;1.312;2022-12-07T02:21:02;9.60;99.90
31729;DHT22;18309;43.658;1.312;2022-12-07T02:32:10;9.60;99.90
31729;DHT22;18309;43.658;1.312;2022-12-07T02:34:50;9.60;99.90
31729;DHT22;18309;43.658;1.312;2022-12-07T02:37:30;9.60;99.90
31729;DHT22;18309;43.658;1.312;2022-12-07T02:40:07;9.60;99.90
31729;DHT22;18309;43.658;1.312;2022-12-07T02:42:38;9.60;99.90
31729;DHT22;18309;43.658;1.312;2022-12-07T02:45:06;9.60;99.90
31729;DHT22;18309;43.658;1.312;2022-12-07T02:47:33;9.60;99.90
31729;DHT22;18309;43.658;1.312;2022-12-07T02:50:00;9.50;99.90
31729;DHT22;18309;43.658;1.312;2022-12-07T02:52:27;9.50;99.90
31729;DHT22;18309;43.658;1.312;2022-12-07T02:54:53;9.50;99.90
31729;DHT22;18309;43.658;1.312;2022-12-07T02:57:43;9.50;99.90
31729;DHT22;18309;43.658;1.312;2022-12-07T03:00:15;9.50;99.90
31729;DHT22;18309;43.658;1.312;2022-12-07T03:05:47;9.50;99.90
31729;DHT22;18309;43.658;1.312;2022-12-07T03:09:11;9.50;99.90
31729;DHT22;18309;43.658;1.312;2022-12-07T03:11:48;9.50;99.90
31729;DHT22;18309;43.658;1.312;2022-12-07T03:14:21;9.50;99.90
31729;DHT22;18309;43.658;1.312;2022-12-07T03:17:15;9.50;99.90
31729;DHT22;18309;43.658;1.312;2022-12-07T03:19:39;9.50;99.90
31729;DHT22;18309;43.658;1.312;2022-12-07T03:22:11;9.50;99.90
31729;DHT22;18309;43.658;1.312;2022-12-07T03:27:16;9.50;99.90
31729;DHT22;18309;43.658;1.312;2022-12-07T03:29:54;9.50;99.90
31729;DHT22;18309;43.658;1.312;2022-12-07T03:32:37;9.50;99.90
31729;DHT22;18309;43.658;1.312;2022-12-07T03:38:03;9.50;99.90
31729;DHT22;18309;43.658;1.312;2022-12-07T03:40:40;9.50;99.90
31729;DHT22;18309;43.658;1.312;2022-12-07T03:43:09;9.50;99.90
31729;DHT22;18309;43.658;1.312;2022-12-07T03:45:44;9.50;99.90
31729;DHT22;18309;43.658;1.312;2022-12-07T03:48:24;9.50;99.90
31729;DHT22;18309;43.658;1.312;2022-12-07T03:53:54;9.50;99.90
31729;DHT22;18309;43.658;1.312;2022-12-07T03:56:22;9.50;99.90
31729;DHT22;18309;43.658;1.312;2022-12-07T03:58:49;9.50;99.90
31729;DHT22;18309;43.658;1.312;2022-12-07T04:01:15;9.50;99.90
31729;DHT22;18309;43.658;1.312;2022-12-07T04:03:40;9.50;99.90
31729;DHT22;18309;43.658;1.312;2022-12-07T04:06:06;9.50;99.90
31729;DHT22;18309;43.658;1.312;2022-12-07T04:08:32;9.50;99.80
31729;DHT22;18309;43.658;1.312;2022-12-07T04:10:57;9.50;99.90
31729;DHT22;18309;43.658;1.312;2022-12-07T04:13:23;9.50;99.90
31729;DHT22;18309;43.658;1.312;2022-12-07T04:15:49;9.50;99.90
31729;DHT22;18309;43.658;1.312;2022-12-07T04:18:14;9.40;99.90
31729;DHT22;18309;43.658;1.312;2022-12-07T04:20:40;9.50;99.90
31729;DHT22;18309;43.658;1.312;2022-12-07T04:23:06;9.50;99.90
31729;DHT22;18309;43.658;1.312;2022-12-07T04:25:32;9.50;99.90
31729;DHT22;18309;43.658;1.312;2022-12-07T04:27:58;9.50;99.90
31729;DHT22;18309;43.658;1.312;2022-12-07T04:30:23;9.50;99.90
31729;DHT22;18309;43.658;1.312;2022-12-07T04:32:49;9.50;99.90
31729;DHT22;18309;43.658;1.312;2022-12-07T04:35:15;9.50;99.90
31729;DHT22;18309;43.658;1.312;2022-12-07T04:37:40;9.50;99.90
31729;DHT22;18309;43.658;1.312;2022-12-07T04:40:10;9.50;99.90
31729;DHT22;18309;43.658;1.312;2022-12-07T04:42:37;9.50;99.90
31729;DHT22;18309;43.658;1.312;2022-12-07T04:45:03;9.50;99.90
31729;DHT22;18309;43.658;1.312;2022-12-07T04:47:29;9.40;99.90
31729;DHT22;18309;43.658;1.312;2022-12-07T04:49:55;9.50;99.90
31729;DHT22;18309;43.658;1.312;2022-12-07T04:52:20;9.50;99.90
31729;DHT22;18309;43.658;1.312;2022-12-07T04:54:46;9.50;99.90
31729;DHT22;18309;43.658;1.312;2022-12-07T04:57:12;9.50;99.90
31729;DHT22;18309;43.658;1.312;2022-12-07T04:59:37;9.40;99.90
31729;DHT22;18309;43.658;1.312;2022-12-07T05:02:03;9.40;99.90
31729;DHT22;18309;43.658;1.312;2022-12-07T05:04:29;9.40;99.90
31729;DHT22;18309;43.658;1.312;2022-12-07T05:06:54;9.40;99.90
31729;DHT22;18309;43.658;1.312;2022-12-07T05:09:20;9.40;99.90
31729;DHT22;18309;43.658;1.312;2022-12-07T05:11:46;9.40;99.90
31729;DHT22;18309;43.658;1.312;2022-12-07T05:14:16;9.40;99.90
31729;DHT22;18309;43.658;1.312;2022-12-07T05:16:43;9.40;99.90
31729;DHT22;18309;43.658;1.312;2022-12-07T05:19:09;9.40;99.90
31729;DHT22;18309;43.658;1.312;2022-12-07T05:21:36;9.40;99.90
31729;DHT22;18309;43.658;1.312;2022-12-07T05:24:02;9.40;99.90
31729;DHT22;18309;43.658;1.312;2022-12-07T05:26:28;9.40;99.90
31729;DHT22;18309;43.658;1.312;2022-12-07T05:28:55;9.40;99.90
31729;DHT22;18309;43.658;1.312;2022-12-07T05:31:22;9.40;99.90
31729;DHT22;18309;43.658;1.312;2022-12-07T05:33:48;9.40;99.90
31729;DHT22;18309;43.658;1.312;2022-12-07T05:36:13;9.40;99.90
31729;DHT22;18309;43.658;1.312;2022-12-07T05:38:39;9.40;99.90
31729;DHT22;18309;43.658;1.312;2022-12-07T05:41:06;9.40;99.90
31729;DHT22;18309;43.658;1.312;2022-12-07T05:43:33;9.40;99.90
31729;DHT22;18309;43.658;1.312;2022-12-07T05:45:59;9.40;99.90
31729;DHT22;18309;43.658;1.312;2022-12-07T05:48:25;9.40;99.90
31729;DHT22;18309;43.658;1.312;2022-12-07T05:50:52;9.40;99.90
31729;DHT22;18309;43.658;1.312;2022-12-07T05:53:18;9.40;99.90
31729;DHT22;18309;43.658;1.312;2022-12-07T05:55:44;9.40;99.90
31729;DHT22;18309;43.658;1.312;2022-12-07T05:58:10;9.40;99.90
31729;DHT22;18309;43.658;1.312;2022-12-07T06:00:55;9.40;99.90
31729;DHT22;18309;43.658;1.312;2022-12-07T06:03:21;9.40;99.90
31729;DHT22;18309;43.658;1.312;2022-12-07T06:05:46;9.40;99.90
31729;DHT22;18309;43.658;1.312;2022-12-07T06:08:12;9.40;99.90
31729;DHT22;18309;43.658;1.312;2022-12-07T06:10:40;9.40;99.90
31729;DHT22;18309;43.658;1.312;2022-12-07T06:13:07;9.40;99.90
31729;DHT22;18309;43.658;1.312;2022-12-07T06:15:35;9.40;99.90
31729;DHT22;18309;43.658;1.312;2022-12-07T06:18:01;9.40;99.90
31729;DHT22;18309;43.658;1.312;2022-12-07T06:20:26;9.40;99.90
31729;DHT22;18309;43.658;1.312;2022-12-07T06:22:52;9.40;99.90
31729;DHT22;18309;43.658;1.312;2022-12-07T06:25:18;9.40;99.90
31729;DHT22;18309;43.658;1.312;2022-12-07T06:27:43;9.40;99.90
31729;DHT22;18309;43.658;1.312;2022-12-07T06:30:09;9.40;99.90
31729;DHT22;18309;43.658;1.312;2022-12-07T06:32:36;9.40;99.90
31729;DHT22;18309;43.658;1.312;2022-12-07T06:35:03;9.30;99.90
31729;DHT22;18309;43.658;1.312;2022-12-07T06:37:28;9.30;99.90
31729;DHT22;18309;43.658;1.312;2022-12-07T06:39:54;9.30;99.90
31729;DHT22;18309;43.658;1.312;2022-12-07T06:42:20;9.40;99.90
31729;DHT22;18309;43.658;1.312;2022-12-07T06:44:45;9.30;99.90
31729;DHT22;18309;43.658;1.312;2022-12-07T06:47:11;9.30;99.90
31729;DHT22;18309;43.658;1.312;2022-12-07T06:49:37;9.30;99.90
31729;DHT22;18309;43.658;1.312;2022-12-07T06:52:03;9.30;99.90
31729;DHT22;18309;43.658;1.312;2022-12-07T06:54:30;9.30;99.90
31729;DHT22;18309;43.658;1.312;2022-12-07T06:56:55;9.30;99.90
31729;DHT22;18309;43.658;1.312;2022-12-07T06:59:21;9.30;99.90
31729;DHT22;18309;43.658;1.312;2022-12-07T07:01:47;9.30;99.90
31729;DHT22;18309;43.658;1.312;2022-12-07T07:04:13;9.30;99.90
31729;DHT22;18309;43.658;1.312;2022-12-07T07:06:38;9.30;99.90
31729;DHT22;18309;43.658;1.312;2022-12-07T07:09:04;9.30;99.90
31729;DHT22;18309;43.658;1.312;2022-12-07T07:11:30;9.30;99.90
31729;DHT22;18309;43.658;1.312;2022-12-07T07:13:55;9.30;99.90
31729;DHT22;18309;43.658;1.312;2022-12-07T07:16:24;9.30;99.90
31729;DHT22;18309;43.658;1.312;2022-12-07T07:18:50;9.30;99.90
31729;DHT22;18309;43.658;1.312;2022-12-07T07:21:15;9.30;99.90
31729;DHT22;18309;43.658;1.312;2022-12-07T07:23:41;9.30;99.90
31729;DHT22;18309;43.658;1.312;2022-12-07T07:26:07;9.30;99.90
31729;DHT22;18309;43.658;1.312;2022-12-07T07:28:32;9.30;99.90
31729;DHT22;18309;43.658;1.312;2022-12-07T07:30:58;9.30;99.90
31729;DHT22;18309;43.658;1.312;2022-12-07T07:33:24;9.30;99.90
31729;DHT22;18309;43.658;1.312;2022-12-07T07:35:49;9.30;99.90
31729;DHT22;18309;43.658;1.312;2022-12-07T07:38:15;9.30;99.90
31729;DHT22;18309;43.658;1.312;2022-12-07T07:40:41;9.30;99.90
31729;DHT22;18309;43.658;1.312;2022-12-07T07:43:06;9.30;99.90
31729;DHT22;18309;43.658;1.312;2022-12-07T07:45:32;9.30;99.90
31729;DHT22;18309;43.658;1.312;2022-12-07T07:47:58;9.30;99.90
31729;DHT22;18309;43.658;1.312;2022-12-07T07:50:23;9.30;99.90
31729;DHT22;18309;43.658;1.312;2022-12-07T07:52:49;9.30;99.90
31729;DHT22;18309;43.658;1.312;2022-12-07T07:55:15;9.30;99.90
31729;DHT22;18309;43.658;1.312;2022-12-07T07:57:41;9.30;99.90
31729;DHT22;18309;43.658;1.312;2022-12-07T08:00:11;9.30;99.90
31729;DHT22;18309;43.658;1.312;2022-12-07T08:02:37;9.30;99.90
31729;DHT22;18309;43.658;1.312;2022-12-07T08:05:03;9.30;99.90
31729;DHT22;18309;43.658;1.312;2022-12-07T08:07:29;9.30;99.90
31729;DHT22;18309;43.658;1.312;2022-12-07T08:09:54;9.30;99.90
31729;DHT22;18309;43.658;1.312;2022-12-07T08:12:20;9.30;99.90
31729;DHT22;18309;43.658;1.312;2022-12-07T08:14:46;9.30;99.90
31729;DHT22;18309;43.658;1.312;2022-12-07T08:17:12;9.30;99.90
31729;DHT22;18309;43.658;1.312;2022-12-07T08:19:38;9.30;99.90
31729;DHT22;18309;43.658;1.312;2022-12-07T08:22:04;9.30;99.90
31729;DHT22;18309;43.658;1.312;2022-12-07T08:24:32;9.40;99.90
31729;DHT22;18309;43.658;1.312;2022-12-07T08:26:58;9.40;99.90
31729;DHT22;18309;43.658;1.312;2022-12-07T08:29:24;9.40;99.90
31729;DHT22;18309;43.658;1.312;2022-12-07T08:31:49;9.40;99.90
31729;DHT22;18309;43.658;1.312;2022-12-07T08:34:15;9.40;99.90
31729;DHT22;18309;43.658;1.312;2022-12-07T08:36:41;9.40;99.90
31729;DHT22;18309;43.658;1.312;2022-12-07T08:39:07;9.40;99.90
31729;DHT22;18309;43.658;1.312;2022-12-07T08:41:32;9.40;99.90
31729;DHT22;18309;43.658;1.312;2022-12-07T08:43:58;9.40;99.90
31729;DHT22;18309;43.658;1.312;2022-12-07T08:49:08;9.20;99.90
31729;DHT22;18309;43.658;1.312;2022-12-07T08:51:35;9.20;99.90
31729;DHT22;18309;43.658;1.312;2022-12-07T08:54:04;9.20;99.90
31729;DHT22;18309;43.658;1.312;2022-12-07T08:56:31;9.20;99.90
31729;DHT22;18309;43.658;1.312;2022-12-07T08:58:57;9.20;99.90
31729;DHT22;18309;43.658;1.312;2022-12-07T09:01:23;9.20;99.90
31729;DHT22;18309;43.658;1.312;2022-12-07T09:03:49;9.20;99.90
31729;DHT22;18309;43.658;1.312;2022-12-07T09:06:15;9.20;99.90
31729;DHT22;18309;43.658;1.312;2022-12-07T09:08:46;9.30;99.90
31729;DHT22;18309;43.658;1.312;2022-12-07T09:11:12;9.30;99.90
31729;DHT22;18309;43.658;1.312;2022-12-07T09:13:38;9.30;99.90
31729;DHT22;18309;43.658;1.312;2022-12-07T09:16:04;9.30;99.90
31729;DHT22;18309;43.658;1.312;2022-12-07T09:18:30;9.40;99.90
31729;DHT22;18309;43.658;1.312;2022-12-07T09:20:56;9.40;99.90
31729;DHT22;18309;43.658;1.312;2022-12-07T09:23:22;9.40;99.90
31729;DHT22;18309;43.658;1.312;2022-12-07T09:25:48;9.40;99.90
31729;DHT22;18309;43.658;1.312;2022-12-07T09:28:14;9.50;99.90
31729;DHT22;18309;43.658;1.312;2022-12-07T09:30:45;9.50;99.90
31729;DHT22;18309;43.658;1.312;2022-12-07T09:33:11;9.50;99.90
31729;DHT22;18309;43.658;1.312;2022-12-07T09:35:37;9.50;99.90
31729;DHT22;18309;43.658;1.312;2022-12-07T09:38:02;9.50;99.90
31729;DHT22;18309;43.658;1.312;2022-12-07T09:40:28;9.50;99.90
31729;DHT22;18309;43.658;1.312;2022-12-07T09:42:55;9.60;99.90
31729;DHT22;18309;43.658;1.312;2022-12-07T09:45:24;9.60;99.90
31729;DHT22;18309;43.658;1.312;2022-12-07T09:47:51;9.60;99.90
31729;DHT22;18309;43.658;1.312;2022-12-07T09:50:23;9.60;99.90
31729;DHT22;18309;43.658;1.312;2022-12-07T09:52:50;9.70;99.90
31729;DHT22;18309;43.658;1.312;2022-12-07T09:55:24;9.70;99.90
31729;DHT22;18309;43.658;1.312;2022-12-07T09:57:52;9.80;99.90
31729;DHT22;18309;43.658;1.312;2022-12-07T10:00:20;9.80;99.90
31729;DHT22;18309;43.658;1.312;2022-12-07T10:02:59;9.80;99.90
31729;DHT22;18309;43.658;1.312;2022-12-07T10:05:30;9.90;99.90
31729;DHT22;18309;43.658;1.312;2022-12-07T10:07:58;9.90;99.90
31729;DHT22;18309;43.658;1.312;2022-12-07T10:10:32;10.00;99.90
31729;DHT22;18309;43.658;1.312;2022-12-07T10:13:10;10.10;99.90
31729;DHT22;18309;43.658;1.312;2022-12-07T10:15:55;10.20;99.90
31729;DHT22;18309;43.658;1.312;2022-12-07T10:18:35;10.30;99.90
31729;DHT22;18309;43.658;1.312;2022-12-07T10:23:35;10.40;99.90
31729;DHT22;18309;43.658;1.312;2022-12-07T10:29:42;10.50;99.90
31729;DHT22;18309;43.658;1.312;2022-12-07T10:32:00;10.50;99.90
31729;DHT22;18309;43.658;1.312;2022-12-07T10:34:32;10.50;99.90
31729;DHT22;18309;43.658;1.312;2022-12-07T10:39:43;10.40;99.90
31729;DHT22;18309;43.658;1.312;2022-12-07T10:42:17;10.40;99.90
31729;DHT22;18309;43.658;1.312;2022-12-07T10:44:43;10.40;99.90
31729;DHT22;18309;43.658;1.312;2022-12-07T10:47:20;10.50;99.90
31729;DHT22;18309;43.658;1.312;2022-12-07T10:52:57;10.60;99.90
31729;DHT22;18309;43.658;1.312;2022-12-07T11:12:41;10.60;99.90
31729;DHT22;18309;43.658;1.312;2022-12-07T11:18:00;10.70;97.50
31729;DHT22;18309;43.658;1.312;2022-12-07T11:20:50;10.90;98.30
31729;DHT22;18309;43.658;1.312;2022-12-07T11:26:06;10.90;98.00
31729;DHT22;18309;43.658;1.312;2022-12-07T11:28:38;10.90;98.10
31729;DHT22;18309;43.658;1.312;2022-12-07T11:34:00;11.10;98.50
31729;DHT22;18309;43.658;1.312;2022-12-07T11:36:41;11.10;99.10
31729;DHT22;18309;43.658;1.312;2022-12-07T11:39:34;11.20;98.50
31729;DHT22;18309;43.658;1.312;2022-12-07T11:42:09;11.30;98.60
31729;DHT22;18309;43.658;1.312;2022-12-07T11:50:50;11.50;97.60
31729;DHT22;18309;43.658;1.312;2022-12-07T11:55:56;11.60;97.70
31729;DHT22;18309;43.658;1.312;2022-12-07T12:06:43;11.90;97.60
31729;DHT22;18309;43.658;1.312;2022-12-07T12:20:41;12.30;96.10
31729;DHT22;18309;43.658;1.312;2022-12-07T12:23:27;12.40;96.60
31729;DHT22;18309;43.658;1.312;2022-12-07T12:25:57;12.50;97.10
31729;DHT22;18309;43.658;1.312;2022-12-07T12:33:59;12.70;96.60
31729;DHT22;18309;43.658;1.312;2022-12-07T12:46:53;13.10;95.80
31729;DHT22;18309;43.658;1.312;2022-12-07T12:51:46;13.20;96.30
31729;DHT22;18309;43.658;1.312;2022-12-07T12:54:33;13.40;96.10
31729;DHT22;18309;43.658;1.312;2022-12-07T12:59:36;13.60;95.60
31729;DHT22;18309;43.658;1.312;2022-12-07T13:02:29;13.80;95.00
31729;DHT22;18309;43.658;1.312;2022-12-07T13:08:01;13.90;94.50
31729;DHT22;18309;43.658;1.312;2022-12-07T13:20:59;14.50;93.80
31729;DHT22;18309;43.658;1.312;2022-12-07T13:26:20;14.60;93.10
31729;DHT22;18309;43.658;1.312;2022-12-07T13:34:34;15.00;92.80
31729;DHT22;18309;43.658;1.312;2022-12-07T13:37:46;14.90;91.90
31729;DHT22;18309;43.658;1.312;2022-12-07T13:40:01;15.10;91.60
31729;DHT22;18309;43.658;1.312;2022-12-07T13:42:37;15.30;91.30
31729;DHT22;18309;43.658;1.312;2022-12-07T13:45:26;15.50;91.30
31729;DHT22;18309;43.658;1.312;2022-12-07T13:48:32;15.50;91.00
31729;DHT22;18309;43.658;1.312;2022-12-07T13:51:01;15.70;91.00
31729;DHT22;18309;43.658;1.312;2022-12-07T13:53:27;15.90;90.70
31729;DHT22;18309;43.658;1.312;2022-12-07T13:55:56;15.90;90.50
31729;DHT22;18309;43.658;1.312;2022-12-07T13:58:23;16.10;90.80
31729;DHT22;18309;43.658;1.312;2022-12-07T14:00:50;16.20;90.70
31729;DHT22;18309;43.658;1.312;2022-12-07T14:05:44;16.40;90.10
31729;DHT22;18309;43.658;1.312;2022-12-07T14:10:37;16.80;89.30
31729;DHT22;18309;43.658;1.312;2022-12-07T14:13:36;17.20;87.40
31729;DHT22;18309;43.658;1.312;2022-12-07T14:16:21;17.50;85.50
31729;DHT22;18309;43.658;1.312;2022-12-07T14:18:48;17.70;84.80
31729;DHT22;18309;43.658;1.312;2022-12-07T14:21:16;18.00;83.90
31729;DHT22;18309;43.658;1.312;2022-12-07T14:24:15;18.70;82.10
31729;DHT22;18309;43.658;1.312;2022-12-07T14:26:43;19.10;80.90
31729;DHT22;18309;43.658;1.312;2022-12-07T14:31:50;18.00;84.80
31729;DHT22;18309;43.658;1.312;2022-12-07T14:34:16;17.90;85.50
31729;DHT22;18309;43.658;1.312;2022-12-07T14:36:42;18.30;84.30
31729;DHT22;18309;43.658;1.312;2022-12-07T14:39:07;18.70;83.10
31729;DHT22;18309;43.658;1.312;2022-12-07T14:41:33;19.60;80.00
31729;DHT22;18309;43.658;1.312;2022-12-07T14:44:22;19.10;80.60
31729;DHT22;18309;43.658;1.312;2022-12-07T14:46:51;18.60;82.20
31729;DHT22;18309;43.658;1.312;2022-12-07T14:49:18;17.60;85.00
31729;DHT22;18309;43.658;1.312;2022-12-07T14:51:46;16.60;88.50
31729;DHT22;18309;43.658;1.312;2022-12-07T14:54:17;16.00;91.00
31729;DHT22;18309;43.658;1.312;2022-12-07T14:56:44;15.60;91.80
31729;DHT22;18309;43.658;1.312;2022-12-07T14:59:11;15.30;92.10
31729;DHT22;18309;43.658;1.312;2022-12-07T15:01:37;15.10;92.40
31729;DHT22;18309;43.658;1.312;2022-12-07T15:04:03;14.90;92.70
31729;DHT22;18309;43.658;1.312;2022-12-07T15:06:29;14.70;92.90
31729;DHT22;18309;43.658;1.312;2022-12-07T15:08:55;14.70;92.90
31729;DHT22;18309;43.658;1.312;2022-12-07T15:11:20;14.50;93.10
31729;DHT22;18309;43.658;1.312;2022-12-07T15:13:46;14.40;93.60
31729;DHT22;18309;43.658;1.312;2022-12-07T15:16:31;14.30;93.70
31729;DHT22;18309;43.658;1.312;2022-12-07T15:18:56;14.30;93.90
31729;DHT22;18309;43.658;1.312;2022-12-07T15:21:22;14.20;94.50
31729;DHT22;18309;43.658;1.312;2022-12-07T15:23:48;14.10;94.70
31729;DHT22;18309;43.658;1.312;2022-12-07T15:26:14;14.00;94.40
31729;DHT22;18309;43.658;1.312;2022-12-07T15:28:40;14.00;93.70
31729;DHT22;18309;43.658;1.312;2022-12-07T15:31:14;13.90;94.00
31729;DHT22;18309;43.658;1.312;2022-12-07T15:33:40;13.90;94.60
31729;DHT22;18309;43.658;1.312;2022-12-07T15:36:06;13.80;95.00
31729;DHT22;18309;43.658;1.312;2022-12-07T15:38:32;13.70;95.40
31729;DHT22;18309;43.658;1.312;2022-12-07T15:40:58;13.60;94.60
31729;DHT22;18309;43.658;1.312;2022-12-07T15:43:24;13.50;94.40
31729;DHT22;18309;43.658;1.312;2022-12-07T15:46:08;13.50;94.00
31729;DHT22;18309;43.658;1.312;2022-12-07T15:48:33;13.50;94.50
31729;DHT22;18309;43.658;1.312;2022-12-07T15:51:03;13.40;94.70
31729;DHT22;18309;43.658;1.312;2022-12-07T15:53:29;13.30;94.80
31729;DHT22;18309;43.658;1.312;2022-12-07T15:55:55;13.20;95.30
31729;DHT22;18309;43.658;1.312;2022-12-07T15:58:20;13.10;95.60
31729;DHT22;18309;43.658;1.312;2022-12-07T16:00:46;13.10;95.00
31729;DHT22;18309;43.658;1.312;2022-12-07T16:03:13;13.10;94.60
31729;DHT22;18309;43.658;1.312;2022-12-07T16:05:39;13.20;94.70
31729;DHT22;18309;43.658;1.312;2022-12-07T16:08:05;13.10;94.50
31729;DHT22;18309;43.658;1.312;2022-12-07T16:10:31;13.10;94.80
31729;DHT22;18309;43.658;1.312;2022-12-07T16:12:56;13.10;94.50
31729;DHT22;18309;43.658;1.312;2022-12-07T16:15:22;13.10;94.30
31729;DHT22;18309;43.658;1.312;2022-12-07T16:17:50;13.00;94.30
31729;DHT22;18309;43.658;1.312;2022-12-07T16:20:16;12.90;96.10
31729;DHT22;18309;43.658;1.312;2022-12-07T16:22:41;12.80;95.00
31729;DHT22;18309;43.658;1.312;2022-12-07T16:25:07;12.70;95.10
31729;DHT22;18309;43.658;1.312;2022-12-07T16:27:34;12.40;96.60
31729;DHT22;18309;43.658;1.312;2022-12-07T16:30:00;12.30;97.40
31729;DHT22;18309;43.658;1.312;2022-12-07T16:32:26;12.20;96.20
31729;DHT22;18309;43.658;1.312;2022-12-07T16:34:51;12.10;97.50
31729;DHT22;18309;43.658;1.312;2022-12-07T16:37:17;11.90;97.20
31729;DHT22;18309;43.658;1.312;2022-12-07T16:39:43;11.80;97.80
31729;DHT22;18309;43.658;1.312;2022-12-07T16:42:08;11.70;97.70
31729;DHT22;18309;43.658;1.312;2022-12-07T16:44:34;11.60;98.40
31729;DHT22;18309;43.658;1.312;2022-12-07T16:47:00;11.50;98.50
31729;DHT22;18309;43.658;1.312;2022-12-07T16:49:26;11.30;98.90
31729;DHT22;18309;43.658;1.312;2022-12-07T16:51:51;11.30;98.90
31729;DHT22;18309;43.658;1.312;2022-12-07T16:54:18;11.20;99.10
31729;DHT22;18309;43.658;1.312;2022-12-07T16:56:43;11.20;99.20
31729;DHT22;18309;43.658;1.312;2022-12-07T16:59:09;11.10;99.30
31729;DHT22;18309;43.658;1.312;2022-12-07T17:01:35;11.10;98.60
31729;DHT22;18309;43.658;1.312;2022-12-07T17:04:01;11.10;98.30
31729;DHT22;18309;43.658;1.312;2022-12-07T17:06:28;11.10;96.60
31729;DHT22;18309;43.658;1.312;2022-12-07T17:08:56;11.10;97.50
31729;DHT22;18309;43.658;1.312;2022-12-07T17:11:27;11.30;97.60
31729;DHT22;18309;43.658;1.312;2022-12-07T17:13:53;11.50;96.50
31729;DHT22;18309;43.658;1.312;2022-12-07T17:16:38;11.60;96.80
31729;DHT22;18309;43.658;1.312;2022-12-07T17:19:08;11.60;96.80
31729;DHT22;18309;43.658;1.312;2022-12-07T17:21:34;11.60;96.80
31729;DHT22;18309;43.658;1.312;2022-12-07T17:24:01;11.60;96.90
31729;DHT22;18309;43.658;1.312;2022-12-07T17:26:28;11.60;96.90
31729;DHT22;18309;43.658;1.312;2022-12-07T17:28:55;11.60;96.70
31729;DHT22;18309;43.658;1.312;2022-12-07T17:31:22;11.60;97.00
31729;DHT22;18309;43.658;1.312;2022-12-07T17:33:48;11.50;97.20
31729;DHT22;18309;43.658;1.312;2022-12-07T17:36:22;11.50;97.30
31729;DHT22;18309;43.658;1.312;2022-12-07T17:38:49;11.50;97.20
31729;DHT22;18309;43.658;1.312;2022-12-07T17:41:20;11.40;97.40
31729;DHT22;18309;43.658;1.312;2022-12-07T17:44:07;11.40;97.50
31729;DHT22;18309;43.658;1.312;2022-12-07T17:46:34;11.40;96.60
31729;DHT22;18309;43.658;1.312;2022-12-07T17:49:01;11.30;96.90
31729;DHT22;18309;43.658;1.312;2022-12-07T17:51:27;11.30;96.80
31729;DHT22;18309;43.658;1.312;2022-12-07T17:54:11;11.30;96.80
31729;DHT22;18309;43.658;1.312;2022-12-07T17:56:37;11.30;96.90
31729;DHT22;18309;43.658;1.312;2022-12-07T17:59:03;11.30;97.10
31729;DHT22;18309;43.658;1.312;2022-12-07T18:01:30;11.30;97.40
31729;DHT22;18309;43.658;1.312;2022-12-07T18:03:56;11.20;97.20
31729;DHT22;18309;43.658;1.312;2022-12-07T18:06:22;11.20;96.40
31729;DHT22;18309;43.658;1.312;2022-12-07T18:08:47;11.20;95.90
31729;DHT22;18309;43.658;1.312;2022-12-07T18:11:14;11.20;96.40
31729;DHT22;18309;43.658;1.312;2022-12-07T18:13:40;11.10;97.10
31729;DHT22;18309;43.658;1.312;2022-12-07T18:16:09;11.10;96.70